createdAt,value
2022-08-20T00:01:02.175Z,21.13
2022-08-20T00:03:33.356Z,20.70
2022-08-20T00:06:03.635Z,18.13
2022-08-20T00:08:32.135Z,17.08
2022-08-20T00:11:02.586Z,20.58
2022-08-20T00:13:34.063Z,17.60
2022-08-20T00:16:02.515Z,24.42
2022-08-20T00:18:30.815Z,19.25
2022-08-20T00:20:59.022Z,26.50
2022-08-20T00:23:26.835Z,23.55
2022-08-20T00:25:54.943Z,24.08
2022-08-20T00:28:23.956Z,21.73
2022-08-20T00:30:51.971Z,19.92
2022-08-20T00:33:22.277Z,23.02
2022-08-20T00:35:53.152Z,23.02
2022-08-20T00:38:21.601Z,24.08
2022-08-20T00:40:52.140Z,21.90
2022-08-20T00:43:34.222Z,21.85
2022-08-20T00:46:06.554Z,27.48
2022-08-20T00:48:36.446Z,21.23
2022-08-20T00:51:07.857Z,21.92
2022-08-20T00:53:36.986Z,21.02
2022-08-20T00:56:07.077Z,18.60
2022-08-20T00:58:38.253Z,21.50
2022-08-20T01:01:07.700Z,19.70
2022-08-20T01:03:35.613Z,23.13
2022-08-20T01:06:03.420Z,20.08
2022-08-20T01:08:31.247Z,23.13
2022-08-20T01:11:15.751Z,19.10
2022-08-20T01:13:46.764Z,18.98
2022-08-20T01:16:22.077Z,17.45
2022-08-20T01:18:51.290Z,20.33
2022-08-20T01:21:23.771Z,15.38
2022-08-20T01:23:57.299Z,18.88
2022-08-20T01:26:30.121Z,15.35
2022-08-20T01:29:01.724Z,17.77
2022-08-20T01:31:31.432Z,18.02
2022-08-20T01:34:02.043Z,17.20
2022-08-20T01:36:32.978Z,15.43
2022-08-20T01:39:01.964Z,16.00
2022-08-20T01:41:56.891Z,15.02
2022-08-20T01:44:26.290Z,15.38
2022-08-20T01:46:57.595Z,17.30
2022-08-20T01:49:35.113Z,16.67
2022-08-20T01:52:09.250Z,16.10
2022-08-20T01:54:37.250Z,20.73
2022-08-20T01:57:11.846Z,16.00
2022-08-20T01:59:39.867Z,16.80
2022-08-20T02:02:08.543Z,19.45
2022-08-20T02:04:36.783Z,16.25
2022-08-20T02:07:06.990Z,14.65
2022-08-20T02:09:39.241Z,15.48
2022-08-20T02:12:10.914Z,19.63
2022-08-20T02:14:43.132Z,21.48
2022-08-20T02:17:12.251Z,24.33
2022-08-20T02:19:43.146Z,17.63
2022-08-20T02:22:21.256Z,18.80
2022-08-20T02:27:18.886Z,18.23
2022-08-20T02:29:47.199Z,21.63
2022-08-20T02:32:24.375Z,17.90
2022-08-20T02:35:03.754Z,19.40
2022-08-20T02:37:31.997Z,22.75
2022-08-20T02:39:59.974Z,20.88
2022-08-20T02:42:29.155Z,20.55
2022-08-20T02:44:58.665Z,23.42
2022-08-20T02:47:27.680Z,20.70
2022-08-20T02:49:56.366Z,22.08
2022-08-20T02:52:24.111Z,19.77
2022-08-20T02:57:21.411Z,21.73
2022-08-20T02:59:52.330Z,23.35
2022-08-20T03:02:20.134Z,23.27
2022-08-20T03:07:15.457Z,21.98
2022-08-20T03:12:10.976Z,21.65
2022-08-20T03:14:39.191Z,23.35
2022-08-20T03:17:08.229Z,22.20
2022-08-20T03:19:36.001Z,23.77
2022-08-20T03:24:31.544Z,25.10
2022-08-20T03:29:27.552Z,27.13
2022-08-20T03:34:24.174Z,24.55
2022-08-20T03:36:51.946Z,24.73
2022-08-20T03:41:47.606Z,24.63
2022-08-20T03:44:15.421Z,27.08
2022-08-20T03:49:11.458Z,24.70
2022-08-20T03:51:57.475Z,24.92
2022-08-20T03:54:29.127Z,23.10
2022-08-20T03:57:00.209Z,27.45
2022-08-20T03:59:28.045Z,28.63
2022-08-20T04:04:24.001Z,27.97
2022-08-20T04:09:20.628Z,27.17
2022-08-20T04:14:18.430Z,29.60
2022-08-20T04:16:48.917Z,27.13
2022-08-20T04:19:17.180Z,25.13
2022-08-20T04:21:48.505Z,25.92
2022-08-20T04:24:22.614Z,27.05
2022-08-20T04:26:59.705Z,30.70
2022-08-20T04:29:32.297Z,25.10
2022-08-20T04:32:03.336Z,29.05
2022-08-20T04:34:38.329Z,29.75
2022-08-20T04:37:16.782Z,28.17
2022-08-20T04:40:06.649Z,30.17
2022-08-20T04:42:35.575Z,28.75
2022-08-20T04:45:03.566Z,32.88
2022-08-20T04:47:34.964Z,33.22
2022-08-20T04:50:03.022Z,31.15
2022-08-20T04:52:32.930Z,28.80
2022-08-20T04:55:02.128Z,28.45
2022-08-20T04:57:29.844Z,32.03
2022-08-20T05:02:27.364Z,24.52
2022-08-20T05:07:22.785Z,33.40
2022-08-20T05:12:19.711Z,29.00
2022-08-20T05:14:47.816Z,29.33
2022-08-20T05:17:17.727Z,31.90
2022-08-20T05:19:46.545Z,30.05
2022-08-20T05:22:14.410Z,28.40
2022-08-20T05:24:42.164Z,27.35
2022-08-20T05:29:54.789Z,31.25
2022-08-20T05:32:23.102Z,26.40
2022-08-20T05:34:50.887Z,27.30
2022-08-20T05:39:47.168Z,23.95
2022-08-20T05:42:14.949Z,30.77
2022-08-20T05:47:11.635Z,28.40
2022-08-20T05:49:40.084Z,24.13
2022-08-20T05:52:07.783Z,26.40
2022-08-20T05:54:37.895Z,22.35
2022-08-20T05:57:06.019Z,18.42
2022-08-20T05:59:36.806Z,19.15
2022-08-20T06:02:25.424Z,25.98
2022-08-20T06:04:56.236Z,18.50
2022-08-20T06:07:24.647Z,20.75
2022-08-20T06:09:52.335Z,15.18
2022-08-20T06:14:48.378Z,18.02
2022-08-20T06:17:19.396Z,22.73
2022-08-20T06:19:50.100Z,16.05
2022-08-20T06:22:26.465Z,14.90
2022-08-20T06:24:55.558Z,15.93
2022-08-20T06:27:23.638Z,17.40
2022-08-20T06:29:52.245Z,18.55
2022-08-20T06:32:28.876Z,20.90
2022-08-20T06:35:03.733Z,15.20
2022-08-20T06:37:36.518Z,14.07
2022-08-20T06:40:09.538Z,16.50
2022-08-20T06:42:37.365Z,13.60
2022-08-20T06:45:05.869Z,16.13
2022-08-20T06:47:34.921Z,14.10
2022-08-20T06:50:02.786Z,22.45
2022-08-20T06:52:51.598Z,14.85
2022-08-20T06:55:19.760Z,14.48
2022-08-20T06:57:48.247Z,12.52
2022-08-20T07:00:18.880Z,21.00
2022-08-20T07:02:48.105Z,14.43
2022-08-20T07:05:16.987Z,13.13
2022-08-20T07:07:46.166Z,14.23
2022-08-20T07:10:15.529Z,13.45
2022-08-20T07:12:46.736Z,25.73
2022-08-20T07:15:15.450Z,28.27
2022-08-20T07:17:43.975Z,15.02
2022-08-20T07:20:15.333Z,16.17
2022-08-20T07:22:43.592Z,16.45
2022-08-20T07:25:15.405Z,17.85
2022-08-20T07:27:45.296Z,12.38
2022-08-20T07:30:33.709Z,13.48
2022-08-20T07:33:21.623Z,14.00
2022-08-20T07:35:50.028Z,19.70
2022-08-20T07:38:23.946Z,14.85
2022-08-20T07:40:52.953Z,15.52
2022-08-20T07:43:23.126Z,17.30
2022-08-20T07:45:52.227Z,16.15
2022-08-20T07:48:27.988Z,15.68
2022-08-20T07:51:00.800Z,19.13
2022-08-20T07:53:32.374Z,18.70
2022-08-20T07:56:03.425Z,20.83
2022-08-20T07:58:33.430Z,25.98
2022-08-20T08:01:01.682Z,25.30
2022-08-20T08:03:39.898Z,23.50
2022-08-20T08:07:08.887Z,23.33
2022-08-20T08:09:37.181Z,24.13
2022-08-20T08:12:05.593Z,19.35
2022-08-20T08:14:35.703Z,18.67
2022-08-20T08:17:05.747Z,16.52
2022-08-20T08:19:38.862Z,13.30
2022-08-20T08:22:11.435Z,11.55
2022-08-20T08:24:39.446Z,10.10
2022-08-20T08:27:08.158Z,11.05
2022-08-20T08:29:37.485Z,13.93
2022-08-20T08:32:07.382Z,10.43
2022-08-20T08:34:37.391Z,7.68
2022-08-20T08:37:05.872Z,7.43
2022-08-20T08:39:35.038Z,7.13
2022-08-20T08:42:22.025Z,9.07
2022-08-20T08:44:51.298Z,6.75
2022-08-20T08:47:25.155Z,4.63
2022-08-20T08:49:53.063Z,7.55
2022-08-20T08:52:24.867Z,5.13
2022-08-20T08:54:57.978Z,6.38
2022-08-20T08:57:26.204Z,5.05
2022-08-20T09:00:03.950Z,11.27
2022-08-20T09:02:33.969Z,6.55
2022-08-20T09:05:05.125Z,8.23
2022-08-20T09:07:34.635Z,5.32
2022-08-20T09:10:03.245Z,3.05
2022-08-20T09:12:30.941Z,4.68
2022-08-20T09:15:00.059Z,3.70
2022-08-20T09:17:27.753Z,2.85
2022-08-20T09:19:55.432Z,5.57
2022-08-20T09:22:25.921Z,8.57
2022-08-20T09:24:53.710Z,5.15
2022-08-20T09:27:22.348Z,8.07
2022-08-20T09:29:50.232Z,9.85
2022-08-20T09:32:22.845Z,14.18
2022-08-20T09:34:56.059Z,7.78
2022-08-20T09:37:25.290Z,9.70
2022-08-20T09:39:53.228Z,5.65
2022-08-20T09:42:25.004Z,5.97
2022-08-20T09:44:53.016Z,5.30
2022-08-20T09:47:22.409Z,6.30
2022-08-20T09:49:50.121Z,5.90
2022-08-20T09:52:22.832Z,15.40
2022-08-20T09:54:51.842Z,2.97
2022-08-20T09:57:20.253Z,4.03
2022-08-20T09:59:52.866Z,6.15
2022-08-20T10:02:21.986Z,5.68
2022-08-20T10:04:49.786Z,4.78
2022-08-20T10:07:17.605Z,7.47
2022-08-20T10:09:45.508Z,4.78
2022-08-20T10:12:13.425Z,5.47
2022-08-20T10:14:41.231Z,7.07
2022-08-20T10:17:09.054Z,5.68
2022-08-20T10:19:38.336Z,7.38
2022-08-20T10:22:06.788Z,9.38
2022-08-20T10:24:35.077Z,10.55
2022-08-20T10:27:03.687Z,5.47
2022-08-20T10:29:32.004Z,6.15
2022-08-20T10:32:12.041Z,9.10
2022-08-20T10:34:42.239Z,6.57
2022-08-20T10:37:11.035Z,6.20
2022-08-20T10:39:38.836Z,5.85
2022-08-20T10:42:06.994Z,11.25
2022-08-20T10:44:34.767Z,12.32
2022-08-20T10:47:14.785Z,9.98
2022-08-20T10:49:43.986Z,14.68
2022-08-20T10:52:11.996Z,12.95
2022-08-20T10:54:42.112Z,17.23
2022-08-20T10:57:13.925Z,12.68
2022-08-20T10:59:42.816Z,14.02
2022-08-20T11:02:10.712Z,16.92
2022-08-20T11:04:38.463Z,16.08
2022-08-20T11:07:18.562Z,15.30
2022-08-20T11:09:48.080Z,19.85
2022-08-20T11:12:16.191Z,15.73
2022-08-20T11:14:44.064Z,15.48
2022-08-20T11:17:12.604Z,14.68
2022-08-20T11:19:41.719Z,12.45
2022-08-20T11:22:09.912Z,17.60
2022-08-20T11:24:39.637Z,16.60
2022-08-20T11:27:08.752Z,16.92
2022-08-20T11:29:37.007Z,15.93
2022-08-20T11:32:05.717Z,11.18
2022-08-20T11:34:34.890Z,13.60
2022-08-20T11:37:02.795Z,12.65
2022-08-20T11:39:30.707Z,15.60
2022-08-20T11:41:59.823Z,11.93
2022-08-20T11:44:27.625Z,11.73
2022-08-20T11:46:58.142Z,18.17
2022-08-20T11:49:25.987Z,15.13
2022-08-20T11:51:53.759Z,12.60
2022-08-20T11:54:21.574Z,16.58
2022-08-20T11:56:49.778Z,13.95
2022-08-20T11:59:19.089Z,11.00
2022-08-20T12:02:02.243Z,11.70
2022-08-20T12:04:33.517Z,13.70
2022-08-20T12:07:09.259Z,11.18
2022-08-20T12:09:37.037Z,12.05
2022-08-20T12:12:09.859Z,13.32
2022-08-20T12:14:39.359Z,12.40
2022-08-20T12:17:11.081Z,10.27
2022-08-20T12:19:39.985Z,12.63
2022-08-20T12:22:20.387Z,10.13
2022-08-20T12:24:52.904Z,11.25
2022-08-20T12:27:23.413Z,8.40
2022-08-20T12:29:54.222Z,9.13
2022-08-20T12:32:22.058Z,8.27
2022-08-20T12:34:50.444Z,10.13
2022-08-20T12:37:20.655Z,9.05
2022-08-20T12:39:51.493Z,6.10
2022-08-20T12:42:19.979Z,6.53
2022-08-20T12:44:48.499Z,9.30
2022-08-20T12:47:20.158Z,9.60
2022-08-20T12:49:51.522Z,5.38
2022-08-20T12:52:20.922Z,8.68
2022-08-20T12:54:49.447Z,11.40
2022-08-20T12:57:18.047Z,8.40
2022-08-20T12:59:45.854Z,7.68
2022-08-20T13:02:14.280Z,8.27
2022-08-20T13:04:48.177Z,8.25
2022-08-20T13:07:16.791Z,6.63
2022-08-20T13:09:45.497Z,5.88
2022-08-20T13:12:14.209Z,4.70
2022-08-20T13:14:43.027Z,7.53
2022-08-20T13:17:12.250Z,8.00
2022-08-20T13:19:40.740Z,7.28
2022-08-20T13:22:10.951Z,9.38
2022-08-20T13:24:39.086Z,5.82
2022-08-20T13:27:08.379Z,6.63
2022-08-20T13:29:38.884Z,11.02
2022-08-20T13:32:07.043Z,7.65
2022-08-20T13:34:34.806Z,6.10
2022-08-20T13:37:02.619Z,6.72
2022-08-20T13:39:31.733Z,6.90
2022-08-20T13:41:59.551Z,7.25
2022-08-20T13:44:27.250Z,9.43
2022-08-20T13:47:00.660Z,6.80
2022-08-20T13:49:34.389Z,4.80
2022-08-20T13:52:02.096Z,6.18
2022-08-20T13:54:32.499Z,4.57
2022-08-20T13:57:06.806Z,5.30
2022-08-20T13:59:37.517Z,5.45
2022-08-20T14:02:07.396Z,7.40
2022-08-20T14:04:35.738Z,8.18
2022-08-20T14:07:11.253Z,8.38
2022-08-20T14:09:41.378Z,7.97
2022-08-20T14:12:10.301Z,6.95
2022-08-20T14:14:38.322Z,7.03
2022-08-20T14:17:18.161Z,8.52
2022-08-20T14:19:46.608Z,7.70
2022-08-20T14:22:17.317Z,6.95
2022-08-20T14:24:47.127Z,7.55
2022-08-20T14:27:16.441Z,11.95
2022-08-20T14:29:46.749Z,6.20
2022-08-20T14:32:14.662Z,13.73
2022-08-20T14:34:42.838Z,9.13
2022-08-20T14:37:12.818Z,11.23
2022-08-20T14:39:40.682Z,8.25
2022-08-20T14:42:10.003Z,6.25
2022-08-20T14:44:38.514Z,8.45
2022-08-20T14:47:24.929Z,8.13
2022-08-20T14:49:55.047Z,10.82
2022-08-20T14:52:24.459Z,10.20
2022-08-20T14:54:56.387Z,4.97
2022-08-20T14:57:25.670Z,7.05
2022-08-20T14:59:53.980Z,6.90
2022-08-20T15:02:22.189Z,7.53
2022-08-20T15:04:54.375Z,8.57
2022-08-20T15:07:26.017Z,11.38
2022-08-20T15:09:54.444Z,11.20
2022-08-20T15:12:22.434Z,9.55
2022-08-20T15:14:51.980Z,8.70
2022-08-20T15:17:22.865Z,8.88
2022-08-20T15:19:50.973Z,15.82
2022-08-20T15:22:19.966Z,6.88
2022-08-20T15:24:47.805Z,7.60
2022-08-20T15:27:22.297Z,7.50
2022-08-20T15:29:52.839Z,7.90
2022-08-20T15:32:21.633Z,7.88
2022-08-20T15:34:49.755Z,9.50
2022-08-20T15:37:20.019Z,6.90
2022-08-20T15:39:49.417Z,8.55
2022-08-20T15:42:17.600Z,7.65
2022-08-20T15:44:45.775Z,12.00
2022-08-20T15:47:22.291Z,10.02
2022-08-20T15:49:51.898Z,8.98
2022-08-20T15:52:19.919Z,8.73
2022-08-20T15:54:48.494Z,8.70
2022-08-20T15:57:38.804Z,6.30
2022-08-20T16:00:13.145Z,10.20
2022-08-20T16:03:06.855Z,7.63
2022-08-20T16:05:45.661Z,6.97
2022-08-20T16:08:32.863Z,9.95
2022-08-20T16:11:09.594Z,12.80
2022-08-20T16:13:40.305Z,7.35
2022-08-20T16:16:15.339Z,9.32
2022-08-20T16:18:49.024Z,12.38
2022-08-20T16:21:20.136Z,10.30
2022-08-20T16:23:47.955Z,10.00
2022-08-20T16:26:29.096Z,10.32
2022-08-20T16:29:10.000Z,11.02
2022-08-20T16:31:45.180Z,8.32
2022-08-20T16:34:32.866Z,11.73
2022-08-20T16:37:07.307Z,10.27
2022-08-20T16:39:43.783Z,11.10
2022-08-20T16:42:11.735Z,7.78
2022-08-20T16:44:43.381Z,6.85
2022-08-20T16:47:17.239Z,10.02
2022-08-20T16:49:50.966Z,11.65
2022-08-20T16:52:18.871Z,9.07
2022-08-20T16:54:46.681Z,10.95
2022-08-20T16:57:17.399Z,9.57
2022-08-20T16:59:57.908Z,8.63
2022-08-20T17:02:26.414Z,11.73
2022-08-20T17:04:59.051Z,10.43
2022-08-20T17:07:33.266Z,10.15
2022-08-20T17:10:12.650Z,7.72
2022-08-20T17:12:40.671Z,11.82
2022-08-20T17:15:09.373Z,9.57
2022-08-20T17:17:38.292Z,8.30
2022-08-20T17:20:16.361Z,10.48
2022-08-20T17:22:50.435Z,8.35
2022-08-20T17:25:20.615Z,7.00
2022-08-20T17:27:49.030Z,13.70
2022-08-20T17:30:24.748Z,9.43
2022-08-20T17:32:57.325Z,8.52
2022-08-20T17:35:31.674Z,8.63
2022-08-20T17:38:03.772Z,7.47
2022-08-20T17:40:35.792Z,6.38
2022-08-20T17:43:05.592Z,10.30
2022-08-20T17:45:38.912Z,7.82
2022-08-20T17:48:11.722Z,9.45
2022-08-20T17:50:42.626Z,9.23
2022-08-20T17:53:21.175Z,7.93
2022-08-20T17:55:54.349Z,9.38
2022-08-20T17:58:32.862Z,9.40
2022-08-20T18:01:02.174Z,13.13
2022-08-20T18:03:30.003Z,7.47
2022-08-20T18:06:06.993Z,9.40
2022-08-20T18:08:41.074Z,7.80
2022-08-20T18:11:18.216Z,12.32
2022-08-20T18:14:00.427Z,9.20
2022-08-20T18:16:31.857Z,12.05
2022-08-20T18:19:09.651Z,11.15
2022-08-20T18:22:02.364Z,6.47
2022-08-20T18:24:38.160Z,6.15
2022-08-20T18:27:11.590Z,7.50
2022-08-20T18:29:43.662Z,8.55
2022-08-20T18:32:30.286Z,9.45
2022-08-20T18:35:10.435Z,6.32
2022-08-20T18:37:40.431Z,10.88
2022-08-20T18:40:16.760Z,9.13
2022-08-20T18:42:45.367Z,8.52
2022-08-20T18:45:13.172Z,11.07
2022-08-20T18:47:45.681Z,11.98
2022-08-20T18:50:26.014Z,7.38
2022-08-20T18:53:16.714Z,6.97
2022-08-20T18:55:46.518Z,10.10
2022-08-20T18:58:16.930Z,10.88
2022-08-20T19:00:46.634Z,7.60
2022-08-20T19:03:20.156Z,8.10
2022-08-20T19:06:09.563Z,11.02
2022-08-20T19:08:49.878Z,10.98
2022-08-20T19:11:45.891Z,7.63
2022-08-20T19:14:45.001Z,9.23
2022-08-20T19:17:18.007Z,6.10
2022-08-20T19:19:45.717Z,9.48
2022-08-20T19:24:44.361Z,8.68
2022-08-20T19:27:12.949Z,12.18
2022-08-20T19:29:47.167Z,11.55
2022-08-20T19:32:20.703Z,12.05
2022-08-20T19:34:52.286Z,12.98
2022-08-20T19:37:35.398Z,9.25
2022-08-20T19:40:26.508Z,9.88
2022-08-20T19:42:59.201Z,11.13
2022-08-20T19:45:30.953Z,8.35
2022-08-20T19:48:27.516Z,16.33
2022-08-20T19:51:07.351Z,8.70
2022-08-20T19:53:37.045Z,7.88
2022-08-20T19:56:10.958Z,8.00
2022-08-20T19:58:39.190Z,14.43
2022-08-20T20:01:16.394Z,10.10
2022-08-20T20:03:56.715Z,11.02
2022-08-20T20:06:25.731Z,8.88
2022-08-20T20:08:57.461Z,12.45
2022-08-20T20:11:32.073Z,12.20
2022-08-20T20:14:05.757Z,9.43
2022-08-20T20:16:35.288Z,7.40
2022-08-20T20:19:25.264Z,11.00
2022-08-20T20:22:05.193Z,10.40
2022-08-20T20:24:43.279Z,14.02
2022-08-20T20:27:20.174Z,10.73
2022-08-20T20:29:51.746Z,12.10
2022-08-20T20:32:22.644Z,18.00
2022-08-20T20:34:55.810Z,8.40
2022-08-20T20:37:46.631Z,12.13
2022-08-20T20:40:25.261Z,11.35
2022-08-20T20:43:02.349Z,10.20
2022-08-20T20:45:34.984Z,11.38
2022-08-20T20:48:15.715Z,7.63
2022-08-20T20:50:43.532Z,8.85
2022-08-20T20:55:39.852Z,13.10
2022-08-20T20:58:08.955Z,8.60
2022-08-20T21:00:36.966Z,9.15
2022-08-20T21:05:33.628Z,10.27
2022-08-20T21:08:03.827Z,7.68
2022-08-20T21:10:34.929Z,11.80
2022-08-20T21:13:03.863Z,13.68
2022-08-20T21:15:34.742Z,8.65
2022-08-20T21:18:04.680Z,7.75
2022-08-20T21:20:32.767Z,10.57
2022-08-20T21:23:00.851Z,8.00
2022-08-20T21:25:30.572Z,13.20
2022-08-20T21:27:58.482Z,8.38
2022-08-20T21:30:27.215Z,13.07
2022-08-20T21:32:56.514Z,10.10
2022-08-20T21:35:24.338Z,10.98
2022-08-20T21:40:21.807Z,11.80
2022-08-20T21:42:50.257Z,12.80
2022-08-20T21:45:20.270Z,9.40
2022-08-20T21:47:49.114Z,11.55
2022-08-20T21:50:20.122Z,11.80
2022-08-20T21:52:55.320Z,9.15
2022-08-20T21:55:30.117Z,8.88
2022-08-20T21:57:58.636Z,8.70
2022-08-20T22:00:47.634Z,7.50
2022-08-20T22:03:16.444Z,13.85
2022-08-20T22:05:50.352Z,9.05
2022-08-20T22:08:19.185Z,7.88
2022-08-20T22:10:47.189Z,10.57
2022-08-20T22:13:16.283Z,7.90
2022-08-20T22:15:44.042Z,10.65
2022-08-20T22:20:40.139Z,10.38
2022-08-20T22:23:09.429Z,8.93
2022-08-20T22:25:37.336Z,10.60
2022-08-20T22:28:05.649Z,10.50
2022-08-20T22:30:33.463Z,11.35
2022-08-20T22:35:30.283Z,10.48
2022-08-20T22:37:59.090Z,10.05
2022-08-20T22:40:28.300Z,11.40
2022-08-20T22:42:56.314Z,13.02
2022-08-20T22:45:24.224Z,11.02
2022-08-20T22:47:52.043Z,13.27
2022-08-20T22:52:50.060Z,15.48
2022-08-20T22:55:18.065Z,8.55
2022-08-20T22:57:49.277Z,13.07
2022-08-20T23:00:19.796Z,8.00
2022-08-20T23:02:52.700Z,15.00
2022-08-20T23:05:23.826Z,11.82
2022-08-20T23:07:54.095Z,11.30
2022-08-20T23:10:22.657Z,7.80
2022-08-20T23:12:51.880Z,11.05
2022-08-20T23:15:20.753Z,10.32
2022-08-20T23:17:48.568Z,13.30
2022-08-20T23:25:14.098Z,10.73
2022-08-20T23:27:45.699Z,11.25
2022-08-20T23:30:18.293Z,10.25
2022-08-20T23:32:46.238Z,10.48
2022-08-20T23:35:14.561Z,9.95
2022-08-20T23:37:44.456Z,8.70
2022-08-20T23:40:13.686Z,9.25
2022-08-20T23:42:41.483Z,11.95
2022-08-20T23:45:10.486Z,9.32
2022-08-20T23:47:39.797Z,11.52
2022-08-20T23:50:10.922Z,12.32
2022-08-20T23:52:38.660Z,6.47
2022-08-20T23:55:07.672Z,14.45
2022-08-20T23:57:35.856Z,12.80
